MMCS/CJS METAR and TAF weather

Enter ICAO airport designator
Station Type Date Time Source
MMCS METAR 2024/04/17 18:40 UTC NOAA

MMCS 171840Z 20006KT 10SM FEW200 26/M11 A3008 RMK 8/002


Station Type Date Time Source
MMCS Decoded METAR 2024/04/17 18:40 UTC NOAA

Ciudad Juarez International , Mexico (MMCS) 31-38N 106-26W
Apr 17, 2024 - 02:40 PM EDT / 2024.04.17 1840 UTC
Wind: from the SSW (200 degrees) at 7 MPH (6 KT):0
Visibility: 10 mile(s):0
Sky conditions: mostly clear
Temperature: 78 F (26 C)
Dew Point: 12 F (-11 C)
Relative Humidity: 7%
Pressure (altimeter): 30.08 in. Hg (1018 hPa)
ob: MMCS 171840Z 20006KT 10SM FEW200 26/M11 A3008 RMK 8/002
cycle: 18

Station Type Date Time Source
MMCS TAF 2024/04/17 18:39 UTC NOAA